Details From DTKA - TABARKA 7 NOVEMBRE
To LEIB - Ibiza
Flight Number -
Tags generated
Created
Modified
Stats Distance 381 nm / 706 km
Max Altitude 0 ft / 0 m
Waypoints 5
Social Downloads 1
Likes 1
Share VATSIM

Download

Looking for another format? Having issues loading an existing format? Contact us
Advertisement - Login to hide

Notes

None

Route

DTKA ANB UM134 LUXUR LEIB

ID Type Via Altitude Latitude Longitude Leg Dist Tot Dist Heading (true) Name
O DTKA APT - 0 ft / 0 m 36.98017˚ 8.87513˚ - 0 nm - TABARKA 7 NOVEMBRE
ANB VOR - 0 ft / 0 m 36.81667˚ 7.80000˚ 52 nm 52 nm 260° / 259° ANNABA VOR-DME
PAGRE FIX UM134 (AWY-HI) 0 ft / 0 m 37.71000˚ 5.00000˚ 144 nm 196 nm 293° / 291° -
LUXUR FIX UM134 (AWY-HI) 0 ft / 0 m 38.21333˚ 3.42194˚ 80 nm 277 nm 293° / 292° -
O LEIB APT - 0 ft / 0 m 38.87287˚ 1.37304˚ 104 nm 381 nm 293° / 292° Ibiza

Altitude Profile

Advertisement - Login to hide

Weather


0- 5 10 15 20 25 30 35+ Temperature / ° C

Clouds and Precipitation
Forecast for 2017-12-12 12:00 UTC. Updated 2 hours ago

Ground ~20,000 ft ~40,000 ft Winds

DTKA

Details ICAO DTKA (TBJ)
Name TABARKA 7 NOVEMBRE
Region Tunisia
Timezone Africa/Tunis (UTC+1.0)
Stats Elevation 230 ft / 70 m (AMSL)
Location 36.980165° 8.875125°
Runways 1
Magnetic Variation 2.173° E

METAR

DTKA 120900Z 19005KT 9999 FEW020 18/03 Q1014 NOSIG

Decode

TAF

Not found

Departure Runways

ID Width Length Bearing (true) Bearing (mag) Surface Threshold Offset Overrun Length
09 148 ft / 45 m 9,379 ft / 2,859 m 93.06° 90.89° Asphalt 0 ft / 0 m 230 ft / 70 m
27 148 ft / 45 m 9,379 ft / 2,859 m 273.08° 270.91° Asphalt 0 ft / 0 m 0 ft / 0 m

LEIB

Details ICAO LEIB (IBZ)
Name Ibiza
Region Spain
Timezone Europe/Madrid (UTC+1.0)
Stats Elevation 20 ft / 6 m (AMSL)
Location 38.872871° 1.373045°
Runways 1
Magnetic Variation 0.662° E

METAR

LEIB 120900Z VRB02KT 9999 FEW022 SCT028 12/08 Q1013 NOSIG

Decode

TAF

TAF LEIB 120800Z 1209/1309 29007KT 9999 FEW020 TX16/1209Z TN06/1306Z TEMPO 1209/1216 02012KT

Decode

Destination Runways

ID Width Length Bearing (true) Bearing (mag) Surface Threshold Offset Overrun Length
06 148 ft / 45 m 9,153 ft / 2,790 m 61.85° 61.19° Asphalt 0 ft / 0 m 213 ft / 65 m
24 148 ft / 45 m 9,153 ft / 2,790 m 241.86° 241.20° Asphalt 0 ft / 0 m 197 ft / 60 m

Approach Navaids

Runway Type Ident Frequency Range Bearing (true) Bearing (mag) Slope Elevation
06 Localiser IBI 111.10 MHz 18 nm / 33 km 62.00° 61.34° - 20 ft / 6 m (AMSL)
06 Glidescope IBI 111.10 MHz 10 nm / 19 km 62.00° 61.34° 3.00° 20 ft / 6 m (AMSL)
06 DME IBI 111.10 MHz 18 nm / 33 km - - - 20 ft / 6 m (AMSL)
24 Localiser IBZ 109.50 MHz 18 nm / 33 km 241.81° 241.15° - 15 ft / 5 m (AMSL)
24 Glidescope IBZ 109.50 MHz 10 nm / 19 km 241.86° 241.19° 3.00° 69 ft / 21 m (AMSL)
24 DME IBZ 109.50 MHz 18 nm / 33 km - - - 69 ft / 21 m (AMSL)